Thunder radar more information blitzortung!


Radar de pluja more information rain snow radar


Visita la nostra xarxa de llocs de meteo:

Template documentation
and downloads

And another site



No particular awareness of the weather is required.    There are no Weather-warnings

Pagina Historial Weather Underground text

Diari Resum Juliol 11, 2017 Unitats:  Mètric    Imperial   Tant
« Previous Dia
SegĂźent Dia »
Diari Setmana Mensual Anual Personalitzada
  Maxima: Minima: Media:
Temperatura: 32.7 °C 21.0 °C 27.6 °C
Punt de rosada: 20.4 °C 15.4 °C 18.7 °C
Humitat: 80 % 46 % 60 %
Wind Speed: 22.2 km/h 0.0 km/h 8.1 km/h
RĂ fegues de vent: 22.2 km/h - -
Vent:- - SE
Pression baro: 1015.8 hPa 1010.7 hPa -
Precipitacions: 0.0 mm    
Historical Graphs
 
 
Dades de taula per Juliol 11, 2017
Temps Temperatura Punt de rosada Pression baro Vent Wind Speed RĂ fegues de vent Humitat Rainfall Rate (Hourly)
00:00 23.6 °C 15.4 °C 1013.8 hPa East 3.7 km/h 3.7 km/h 60 % 0.0 mm
00:05 23.5 °C 15.6 °C 1013.8 hPa ESE 3.7 km/h 3.7 km/h 61 % 0.0 mm
00:10 21.6 °C 17.6 °C 1013.8 hPa NE 3.2 km/h 4.8 km/h 78 % 0.0 mm
00:20 21.6 °C 17.6 °C 1013.8 hPa NE 1.6 km/h 4.8 km/h 78 % 0.0 mm
00:30 21.5 °C 17.5 °C 1013.8 hPa NE 3.2 km/h 3.2 km/h 78 % 0.0 mm
00:40 21.4 °C 17.4 °C 1013.8 hPa Calm   4.8 km/h 78 % 0.0 mm
00:50 21.3 °C 17.3 °C 1013.8 hPa Calm   1.6 km/h 78 % 0.0 mm
01:00 21.2 °C 17.2 °C 1013.8 hPa Calm   1.6 km/h 78 % 0.0 mm
01:10 21.1 °C 17.1 °C 1013.8 hPa NE 1.6 km/h   78 % 0.0 mm
01:20 21.1 °C 17.3 °C 1013.8 hPa ENE 1.6 km/h 3.2 km/h 79 % 0.0 mm
01:30 21.1 °C 17.1 °C 1013.8 hPa NE 1.6 km/h 1.6 km/h 78 % 0.0 mm
01:40 21.1 °C 17.1 °C 1013.8 hPa Calm   1.6 km/h 78 % 0.0 mm
01:50 21.0 °C 17.0 °C 1013.8 hPa Calm   1.6 km/h 78 % 0.0 mm
02:00 21.1 °C 17.1 °C 1013.8 hPa NE 1.6 km/h 3.2 km/h 78 % 0.0 mm
02:10 21.0 °C 17.0 °C 1013.8 hPa NE 3.2 km/h 3.2 km/h 78 % 0.0 mm
02:20 21.1 °C 17.1 °C 1013.8 hPa NE 1.6 km/h 3.2 km/h 78 % 0.0 mm
02:30 21.3 °C 17.3 °C 1012.8 hPa Calm     78 % 0.0 mm
02:40 21.4 °C 17.2 °C 1012.8 hPa Calm     77 % 0.0 mm
02:50 21.4 °C 17.0 °C 1012.8 hPa NE 1.6 km/h 3.2 km/h 76 % 0.0 mm
03:00 22.0 °C 17.6 °C 1012.8 hPa Calm     76 % 0.0 mm
03:10 22.4 °C 17.7 °C 1012.8 hPa NE 1.6 km/h 1.6 km/h 75 % 0.0 mm
03:20 22.7 °C 17.8 °C 1013.8 hPa ENE 1.6 km/h 1.6 km/h 74 % 0.0 mm
03:30 23.4 °C 18.3 °C 1013.8 hPa ESE 1.6 km/h 3.2 km/h 73 % 0.0 mm
03:40 23.9 °C 18.6 °C 1013.8 hPa East 4.8 km/h 4.8 km/h 72 % 0.0 mm
03:50 24.1 °C 18.1 °C 1013.8 hPa NE 1.6 km/h 4.8 km/h 69 % 0.0 mm
04:00 24.1 °C 17.8 °C 1013.8 hPa NNE 3.2 km/h 6.4 km/h 68 % 0.0 mm
04:10 24.1 °C 17.6 °C 1013.8 hPa NE 1.6 km/h 6.4 km/h 67 % 0.0 mm
04:20 24.6 °C 18.3 °C 1013.8 hPa NE 1.6 km/h 4.8 km/h 68 % 0.0 mm
04:30 23.9 °C 17.6 °C 1013.8 hPa Calm   6.4 km/h 68 % 0.0 mm
04:40 23.9 °C 17.6 °C 1013.8 hPa NNE 3.2 km/h 4.8 km/h 68 % 0.0 mm
04:50 24.6 °C 18.1 °C 1013.8 hPa NNE 1.6 km/h 3.2 km/h 67 % 0.0 mm
05:00 24.3 °C 17.6 °C 1013.8 hPa NNE 1.6 km/h 4.8 km/h 66 % 0.0 mm
05:10 25.0 °C 17.7 °C 1013.8 hPa NE 1.6 km/h 6.4 km/h 64 % 0.0 mm
05:20 25.6 °C 18.3 °C 1013.8 hPa NNE 1.6 km/h 3.2 km/h 64 % 0.0 mm
10:27 26.1 °C 18.5 °C 1013.8 hPa SW 3.7 km/h 3.7 km/h 63 % 0.0 mm
10:28 26.1 °C 18.5 °C 1013.8 hPa SSW 3.7 km/h 3.7 km/h 63 % 0.0 mm
10:33 26.4 °C 18.6 °C 1013.8 hPa ENE 3.7 km/h 3.7 km/h 62 % 0.0 mm
10:38 26.1 °C 18.2 °C 1013.8 hPa ENE 3.7 km/h 3.7 km/h 62 % 0.0 mm
10:43 26.1 °C 18.2 °C 1013.8 hPa NE 3.7 km/h 3.9 km/h 62 % 0.0 mm
10:48 25.8 °C 17.9 °C 1013.8 hPa ESE 3.7 km/h 4.2 km/h 62 % 0.0 mm
10:53 26.2 °C 18.3 °C 1012.8 hPa SSE 3.7 km/h 3.7 km/h 62 % 0.0 mm
10:58 27.2 °C 18.5 °C 1012.8 hPa SW 2.6 km/h 2.6 km/h 59 % 0.0 mm
11:03 27.7 °C 18.7 °C 1012.8 hPa ESE 3.7 km/h 3.7 km/h 58 % 0.0 mm
11:08 27.5 °C 18.5 °C 1012.8 hPa ENE 2.6 km/h 2.6 km/h 58 % 0.0 mm
11:13 27.8 °C 18.8 °C 1012.8 hPa ESE 3.7 km/h 3.7 km/h 58 % 0.0 mm
11:18 28.3 °C 18.7 °C 1012.8 hPa South 5.6 km/h 5.6 km/h 56 % 0.0 mm
11:23 28.4 °C 18.5 °C 1013.8 hPa SSE 3.9 km/h 3.9 km/h 55 % 0.0 mm
11:28 28.5 °C 18.9 °C 1013.8 hPa NE 5.6 km/h 5.6 km/h 56 % 0.0 mm
11:33 27.8 °C 17.9 °C 1013.8 hPa NE 3.7 km/h 3.7 km/h 55 % 0.0 mm
11:38 27.9 °C 18.3 °C 1013.8 hPa NW 4.7 km/h 4.7 km/h 56 % 0.0 mm
11:43 28.5 °C 18.6 °C 1013.8 hPa SE 3.7 km/h 3.7 km/h 55 % 0.0 mm
11:48 29.0 °C 18.4 °C 1013.8 hPa ENE 5.6 km/h 5.6 km/h 53 % 0.0 mm
11:53 29.5 °C 18.9 °C 1013.8 hPa ESE 4.2 km/h 4.2 km/h 53 % 0.0 mm
11:58 29.1 °C 17.9 °C 1013.8 hPa ESE 7.4 km/h 7.4 km/h 51 % 0.0 mm
12:03 29.5 °C 18.3 °C 1013.8 hPa SSE 9.3 km/h 9.3 km/h 51 % 0.0 mm
12:08 29.8 °C 18.6 °C 1013.8 hPa East 7.4 km/h 7.4 km/h 51 % 0.0 mm
12:13 30.3 °C 19.3 °C 1013.8 hPa SE 5.6 km/h 5.6 km/h 52 % 0.0 mm
12:18 30.6 °C 19.0 °C 1013.8 hPa East 5.3 km/h 5.3 km/h 50 % 0.0 mm
12:23 30.2 °C 18.6 °C 1013.8 hPa SW 5.8 km/h 5.8 km/h 50 % 0.0 mm
12:28 30.1 °C 18.2 °C 1013.8 hPa ESE 9.7 km/h 9.7 km/h 49 % 0.0 mm
12:33 30.0 °C 18.1 °C 1013.8 hPa SSE 9.3 km/h 9.3 km/h 49 % 0.0 mm
12:38 30.6 °C 18.3 °C 1013.8 hPa South 7.4 km/h 7.4 km/h 48 % 0.0 mm
12:43 31.0 °C 18.7 °C 1013.8 hPa East 3.9 km/h 3.9 km/h 48 % 0.0 mm
12:48 30.4 °C 18.2 °C 1013.8 hPa ESE 7.4 km/h 7.4 km/h 48 % 0.0 mm
12:53 30.3 °C 18.4 °C 1013.8 hPa East 9.7 km/h 9.7 km/h 49 % 0.0 mm
12:58 30.3 °C 18.1 °C 1013.8 hPa East 7.4 km/h 7.4 km/h 48 % 0.0 mm
13:03 31.0 °C 18.4 °C 1013.8 hPa ESE 5.6 km/h 5.6 km/h 47 % 0.0 mm
13:08 30.9 °C 18.9 °C 1012.8 hPa ESE 14.8 km/h 14.8 km/h 49 % 0.0 mm
13:13 29.9 °C 18.1 °C 1012.8 hPa ESE 16.7 km/h 16.7 km/h 49 % 0.0 mm
13:18 29.4 °C 17.9 °C 1012.8 hPa NNE 11.1 km/h 11.1 km/h 50 % 0.0 mm
13:23 29.2 °C 18.0 °C 1012.8 hPa SE 14.8 km/h 14.8 km/h 51 % 0.0 mm
13:28 29.1 °C 17.9 °C 1012.8 hPa SE 16.1 km/h 16.1 km/h 51 % 0.0 mm
13:33 29.1 °C 17.9 °C 1012.8 hPa SE 18.5 km/h 18.5 km/h 51 % 0.0 mm
13:38 29.1 °C 17.9 °C 1013.8 hPa East 16.1 km/h 16.1 km/h 51 % 0.0 mm
13:43 29.2 °C 18.3 °C 1013.8 hPa ESE 14.8 km/h 14.8 km/h 52 % 0.0 mm
13:48 29.2 °C 18.0 °C 1013.8 hPa NNE 9.3 km/h 9.3 km/h 51 % 0.0 mm
13:53 29.1 °C 18.2 °C 1013.8 hPa ESE 13.0 km/h 13.0 km/h 52 % 0.0 mm
13:58 29.3 °C 18.4 °C 1013.8 hPa East 16.7 km/h 16.7 km/h 52 % 0.0 mm
14:03 29.9 °C 19.0 °C 1013.8 hPa ESE 9.0 km/h 9.0 km/h 52 % 0.0 mm
14:08 29.6 °C 18.4 °C 1013.8 hPa East 14.8 km/h 14.8 km/h 51 % 0.0 mm
14:13 29.9 °C 18.7 °C 1013.8 hPa ESE 9.3 km/h 9.3 km/h 51 % 0.0 mm
14:18 29.4 °C 18.2 °C 1013.8 hPa ESE 17.2 km/h 17.2 km/h 51 % 0.0 mm
14:23 29.5 °C 18.3 °C 1013.8 hPa ESE 16.7 km/h 16.7 km/h 51 % 0.0 mm
14:28 29.7 °C 18.5 °C 1013.8 hPa East 13.0 km/h 13.0 km/h 51 % 0.0 mm
14:33 29.8 °C 18.6 °C 1013.8 hPa ESE 14.8 km/h 14.8 km/h 51 % 0.0 mm
14:38 29.7 °C 18.5 °C 1013.8 hPa ESE 14.8 km/h 14.8 km/h 51 % 0.0 mm
14:43 29.8 °C 18.6 °C 1013.8 hPa ESE 13.0 km/h 13.0 km/h 51 % 0.0 mm
14:48 29.6 °C 18.4 °C 1013.8 hPa ENE 14.8 km/h 14.8 km/h 51 % 0.0 mm
14:53 29.6 °C 18.4 °C 1013.8 hPa SE 11.1 km/h 11.1 km/h 51 % 0.0 mm
14:58 29.4 °C 18.2 °C 1013.8 hPa ESE 13.0 km/h 13.0 km/h 51 % 0.0 mm
15:03 30.0 °C 18.8 °C 1013.8 hPa ENE 14.0 km/h 14.0 km/h 51 % 0.0 mm
15:08 29.8 °C 18.6 °C 1012.8 hPa ESE 13.0 km/h 13.0 km/h 51 % 0.0 mm
15:13 29.4 °C 18.5 °C 1012.8 hPa ESE 18.5 km/h 18.5 km/h 52 % 0.0 mm
15:18 29.7 °C 18.8 °C 1012.8 hPa South 14.8 km/h 14.8 km/h 52 % 0.0 mm
15:23 30.7 °C 19.7 °C 1012.8 hPa SE 9.3 km/h 9.3 km/h 52 % 0.0 mm
15:28 30.7 °C 19.1 °C 1012.8 hPa South 5.6 km/h 6.9 km/h 50 % 0.0 mm
15:33 30.5 °C 18.9 °C 1012.8 hPa ESE 22.2 km/h 22.2 km/h 50 % 0.0 mm
15:38 30.5 °C 19.2 °C 1013.8 hPa SSE 11.9 km/h 11.9 km/h 51 % 0.0 mm
15:43 29.8 °C 18.6 °C 1013.8 hPa ESE 18.5 km/h 18.5 km/h 51 % 0.0 mm
15:48 30.2 °C 18.9 °C 1013.8 hPa East 10.3 km/h 10.3 km/h 51 % 0.0 mm
15:53 30.4 °C 19.1 °C 1013.8 hPa East 9.3 km/h 9.3 km/h 51 % 0.0 mm
15:58 30.9 °C 19.3 °C 1013.8 hPa ENE 7.4 km/h 7.4 km/h 50 % 0.0 mm
16:03 31.4 °C 19.1 °C 1013.8 hPa ESE 10.3 km/h 10.3 km/h 48 % 0.0 mm
16:08 30.5 °C 18.9 °C 1012.8 hPa East 12.6 km/h 12.6 km/h 50 % 0.0 mm
16:13 30.4 °C 18.8 °C 1012.8 hPa South 11.1 km/h 11.1 km/h 50 % 0.0 mm
16:18 31.3 °C 19.0 °C 1012.8 hPa East 13.0 km/h 13.0 km/h 48 % 0.0 mm
16:23 31.6 °C 18.9 °C 1012.8 hPa South 5.8 km/h 5.8 km/h 47 % 0.0 mm
16:28 31.0 °C 19.1 °C 1012.8 hPa South 5.6 km/h 5.6 km/h 49 % 0.0 mm
16:33 31.3 °C 19.0 °C 1012.8 hPa ENE 5.6 km/h 5.6 km/h 48 % 0.0 mm
16:38 30.7 °C 18.8 °C 1012.8 hPa South 11.1 km/h 11.1 km/h 49 % 0.0 mm
16:43 31.2 °C 19.2 °C 1012.8 hPa East 7.4 km/h 7.4 km/h 49 % 0.0 mm
16:48 31.4 °C 19.1 °C 1012.8 hPa South 9.3 km/h 9.3 km/h 48 % 0.0 mm
16:53 31.5 °C 19.2 °C 1012.8 hPa South 7.4 km/h 7.4 km/h 48 % 0.0 mm
16:58 31.6 °C 19.3 °C 1012.8 hPa SSE 9.0 km/h 9.0 km/h 48 % 0.0 mm
17:03 31.5 °C 19.2 °C 1012.8 hPa ESE 9.3 km/h 9.3 km/h 48 % 0.0 mm
17:08 31.5 °C 19.2 °C 1011.7 hPa South 16.7 km/h 16.7 km/h 48 % 0.0 mm
17:13 31.4 °C 19.1 °C 1011.7 hPa East 11.1 km/h 11.1 km/h 48 % 0.0 mm
17:18 31.8 °C 19.4 °C 1011.7 hPa SSE 7.4 km/h 7.4 km/h 48 % 0.0 mm
17:23 32.7 °C 19.9 °C 1011.7 hPa WSW 10.0 km/h 10.0 km/h 47 % 0.0 mm
17:28 32.6 °C 19.8 °C 1011.7 hPa NW 7.4 km/h 7.4 km/h 47 % 0.0 mm
17:33 32.6 °C 19.5 °C 1011.7 hPa SSW 12.6 km/h 12.6 km/h 46 % 0.0 mm
17:38 32.3 °C 19.2 °C 1011.7 hPa SSW 9.3 km/h 9.3 km/h 46 % 0.0 mm
17:43 32.2 °C 19.1 °C 1011.7 hPa SSW 9.3 km/h 9.3 km/h 46 % 0.0 mm
17:48 32.5 °C 19.4 °C 1011.7 hPa SW 9.5 km/h 9.5 km/h 46 % 0.0 mm
17:53 31.8 °C 19.1 °C 1011.7 hPa SSW 14.8 km/h 14.8 km/h 47 % 0.0 mm
17:58 31.9 °C 19.2 °C 1011.7 hPa WSW 11.1 km/h 11.1 km/h 47 % 0.0 mm
18:03 31.8 °C 19.1 °C 1011.7 hPa SW 11.1 km/h 11.1 km/h 47 % 0.0 mm
18:08 31.6 °C 18.9 °C 1011.7 hPa SSW 14.8 km/h 14.8 km/h 47 % 0.0 mm
18:13 31.6 °C 18.9 °C 1011.7 hPa SW 15.6 km/h 15.6 km/h 47 % 0.0 mm
18:18 31.3 °C 18.7 °C 1011.7 hPa SSE 13.0 km/h 13.0 km/h 47 % 0.0 mm
18:23 31.3 °C 19.0 °C 1011.7 hPa SSW 18.5 km/h 18.5 km/h 48 % 0.0 mm
18:25 31.0 °C 18.7 °C 1011.7 hPa SW 14.8 km/h 14.8 km/h 48 % 0.0 mm
18:30 31.0 °C 18.7 °C 1011.7 hPa WSW 5.6 km/h 5.6 km/h 48 % 0.0 mm
18:35 31.1 °C 18.8 °C 1011.7 hPa SSW 14.8 km/h 14.8 km/h 48 % 0.0 mm
18:36 31.1 °C 18.8 °C 1011.7 hPa SW 14.8 km/h 14.8 km/h 48 % 0.0 mm
18:41 30.7 °C 18.8 °C 1011.7 hPa SW 14.8 km/h 14.8 km/h 49 % 0.0 mm
18:46 30.7 °C 19.1 °C 1011.7 hPa SW 7.4 km/h 7.4 km/h 50 % 0.0 mm
18:51 30.6 °C 19.0 °C 1011.7 hPa SW 16.7 km/h 16.7 km/h 50 % 0.0 mm
18:56 30.0 °C 18.4 °C 1011.7 hPa SSW 14.8 km/h 14.8 km/h 50 % 0.0 mm
19:01 30.4 °C 18.8 °C 1011.7 hPa SW 9.0 km/h 9.0 km/h 50 % 0.0 mm
19:06 30.2 °C 18.9 °C 1011.7 hPa SW 13.0 km/h 13.0 km/h 51 % 0.0 mm
19:11 30.2 °C 18.9 °C 1011.7 hPa WSW 13.0 km/h 13.0 km/h 51 % 0.0 mm
19:16 30.2 °C 18.9 °C 1011.7 hPa SW 9.3 km/h 9.3 km/h 51 % 0.0 mm
19:21 29.7 °C 18.8 °C 1011.7 hPa SW 13.0 km/h 13.0 km/h 52 % 0.0 mm
19:26 29.5 °C 18.6 °C 1011.7 hPa SW 7.4 km/h 7.4 km/h 52 % 0.0 mm
19:31 29.3 °C 18.7 °C 1011.7 hPa SSW 13.0 km/h 13.0 km/h 53 % 0.0 mm
19:36 29.0 °C 18.8 °C 1011.7 hPa WSW 9.3 km/h 9.3 km/h 54 % 0.0 mm
19:41 29.0 °C 18.8 °C 1011.7 hPa SSW 9.3 km/h 9.3 km/h 54 % 0.0 mm
19:46 28.7 °C 19.1 °C 1011.7 hPa SW 10.0 km/h 10.0 km/h 56 % 0.0 mm
19:51 28.5 °C 18.9 °C 1011.7 hPa SSW 9.3 km/h 9.3 km/h 56 % 0.0 mm
19:56 28.4 °C 19.1 °C 1011.7 hPa WSW 13.0 km/h 13.0 km/h 57 % 0.0 mm
20:01 28.3 °C 18.9 °C 1011.7 hPa SW 9.3 km/h 9.3 km/h 57 % 0.0 mm
20:06 28.2 °C 19.2 °C 1011.7 hPa SW 13.0 km/h 13.0 km/h 58 % 0.0 mm
20:11 28.1 °C 19.3 °C 1010.7 hPa WSW 11.1 km/h 11.1 km/h 59 % 0.0 mm
20:16 27.8 °C 19.1 °C 1010.7 hPa West 13.0 km/h 13.0 km/h 59 % 0.0 mm
20:21 27.7 °C 19.2 °C 1010.7 hPa WSW 9.3 km/h 9.3 km/h 60 % 0.0 mm
20:26 27.5 °C 19.3 °C 1011.7 hPa South 7.4 km/h 7.4 km/h 61 % 0.0 mm
20:31 27.4 °C 19.2 °C 1011.7 hPa WSW 13.0 km/h 13.0 km/h 61 % 0.0 mm
20:36 27.1 °C 19.2 °C 1011.7 hPa SSW 7.4 km/h 7.4 km/h 62 % 0.0 mm
20:41 27.0 °C 19.1 °C 1011.7 hPa South 11.1 km/h 11.1 km/h 62 % 0.0 mm
20:46 26.9 °C 19.3 °C 1011.7 hPa SW 5.3 km/h 5.3 km/h 63 % 0.0 mm
20:51 26.6 °C 19.2 °C 1011.7 hPa SW 7.4 km/h 7.4 km/h 64 % 0.0 mm
20:56 26.5 °C 19.4 °C 1011.7 hPa WSW 7.4 km/h 7.4 km/h 65 % 0.0 mm
21:01 26.4 °C 19.3 °C 1011.7 hPa WSW 5.6 km/h 5.6 km/h 65 % 0.0 mm
21:06 26.3 °C 19.2 °C 1011.7 hPa WSW 6.9 km/h 6.9 km/h 65 % 0.0 mm
21:11 26.2 °C 19.1 °C 1012.8 hPa SSE 3.7 km/h 3.7 km/h 65 % 0.0 mm
21:16 26.0 °C 19.2 °C 1012.8 hPa WSW 3.5 km/h   66 % 0.0 mm
21:21 25.9 °C 19.1 °C 1012.8 hPa SW 4.2 km/h 4.2 km/h 66 % 0.0 mm
21:26 25.8 °C 18.9 °C 1012.8 hPa WSW 3.9 km/h 3.9 km/h 66 % 0.0 mm
21:31 25.7 °C 18.9 °C 1012.8 hPa SW 5.6 km/h 5.6 km/h 66 % 0.0 mm
21:36 25.6 °C 19.3 °C 1012.8 hPa WSW 3.7 km/h   68 % 0.0 mm
21:41 25.6 °C 19.3 °C 1013.8 hPa Calm     68 % 0.0 mm
21:46 25.5 °C 19.2 °C 1013.8 hPa ESE 2.3 km/h   68 % 0.0 mm
21:51 25.4 °C 19.3 °C 1013.8 hPa ENE 2.6 km/h 2.6 km/h 69 % 0.0 mm
21:56 25.3 °C 19.2 °C 1013.8 hPa ENE 1.9 km/h   69 % 0.0 mm
22:01 25.3 °C 19.4 °C 1013.8 hPa Calm     70 % 0.0 mm
22:06 25.3 °C 19.4 °C 1013.8 hPa ESE 6.9 km/h 6.9 km/h 70 % 0.0 mm
22:11 25.1 °C 19.4 °C 1013.8 hPa ESE 6.9 km/h 6.9 km/h 71 % 0.0 mm
22:16 24.9 °C 19.7 °C 1013.8 hPa ENE 13.0 km/h 13.0 km/h 73 % 0.0 mm
22:21 24.8 °C 19.8 °C 1013.8 hPa ESE 9.3 km/h 9.3 km/h 74 % 0.0 mm
22:26 24.7 °C 19.8 °C 1014.8 hPa SE 9.3 km/h 9.3 km/h 74 % 0.0 mm
22:31 24.6 °C 19.9 °C 1014.8 hPa East 7.4 km/h 7.4 km/h 75 % 0.0 mm
22:36 24.6 °C 19.9 °C 1014.8 hPa East 11.1 km/h 11.1 km/h 75 % 0.0 mm
22:41 24.5 °C 20.0 °C 1014.8 hPa ESE 7.4 km/h 7.4 km/h 76 % 0.0 mm
22:46 24.5 °C 20.0 °C 1014.8 hPa ESE 11.1 km/h 11.1 km/h 76 % 0.0 mm
22:51 24.5 °C 20.0 °C 1014.8 hPa East 5.6 km/h 5.6 km/h 76 % 0.0 mm
22:56 24.4 °C 20.1 °C 1014.8 hPa ENE 5.6 km/h 5.6 km/h 77 % 0.0 mm
23:01 24.4 °C 20.1 °C 1014.8 hPa ESE 7.4 km/h 7.4 km/h 77 % 0.0 mm
23:06 24.4 °C 20.1 °C 1014.8 hPa ENE 9.3 km/h 9.3 km/h 77 % 0.0 mm
23:11 24.4 °C 20.1 °C 1014.8 hPa ENE 11.1 km/h 11.1 km/h 77 % 0.0 mm
23:16 24.3 °C 20.2 °C 1014.8 hPa NNE 11.4 km/h 11.4 km/h 78 % 0.0 mm
23:21 24.3 °C 20.0 °C 1014.8 hPa ENE 9.3 km/h 9.3 km/h 77 % 0.0 mm
23:26 24.2 °C 20.1 °C 1014.8 hPa NE 7.4 km/h 7.4 km/h 78 % 0.0 mm
23:31 24.2 °C 20.1 °C 1014.8 hPa ESE 7.4 km/h 7.4 km/h 78 % 0.0 mm
23:36 24.2 °C 20.3 °C 1014.8 hPa ESE 7.4 km/h 7.4 km/h 79 % 0.0 mm
23:41 24.2 °C 20.3 °C 1015.8 hPa ENE 5.6 km/h 5.6 km/h 79 % 0.0 mm
23:46 24.2 °C 20.3 °C 1015.8 hPa East 5.6 km/h 5.6 km/h 79 % 0.0 mm
23:51 24.2 °C 20.3 °C 1015.8 hPa East 9.3 km/h 9.3 km/h 79 % 0.0 mm
23:56 24.1 °C 20.4 °C 1015.8 hPa ENE 9.3 km/h 9.3 km/h 80 % 0.0 mm
Meteo Sesrovires
Elogis d' Weather Underground - 3.5 mb

Guio original per  Jim McMurry - jmcmurry@mwt.net Adaptat per a la plantilla per  Wim van der Kuil - Leuven-Template.eu

Trobareu la nostra informacio del temps tambe a:

Weather Underground

AWEKAS